sensor_id;sensor_type;location;lat;lon;timestamp;temperature;humidity
3226;DHT22;1625;49.884;8.666;2022-08-21T00:01:24;19.90;99.90
3226;DHT22;1625;49.884;8.666;2022-08-21T00:03:50;19.80;99.90
3226;DHT22;1625;49.884;8.666;2022-08-21T00:06:16;19.80;99.90
3226;DHT22;1625;49.884;8.666;2022-08-21T00:08:42;19.80;99.90
3226;DHT22;1625;49.884;8.666;2022-08-21T00:11:07;19.80;99.90
3226;DHT22;1625;49.884;8.666;2022-08-21T00:13:34;19.80;99.90
3226;DHT22;1625;49.884;8.666;2022-08-21T00:16:00;19.70;99.90
3226;DHT22;1625;49.884;8.666;2022-08-21T00:18:25;19.60;99.90
3226;DHT22;1625;49.884;8.666;2022-08-21T00:20:51;19.70;99.90
3226;DHT22;1625;49.884;8.666;2022-08-21T00:23:17;19.50;99.90
3226;DHT22;1625;49.884;8.666;2022-08-21T00:25:44;19.50;99.90
3226;DHT22;1625;49.884;8.666;2022-08-21T00:28:11;19.40;99.90
3226;DHT22;1625;49.884;8.666;2022-08-21T00:30:38;19.40;99.90
3226;DHT22;1625;49.884;8.666;2022-08-21T00:33:04;19.40;99.90
3226;DHT22;1625;49.884;8.666;2022-08-21T00:35:32;19.40;99.90
3226;DHT22;1625;49.884;8.666;2022-08-21T00:37:59;19.40;99.90
3226;DHT22;1625;49.884;8.666;2022-08-21T00:40:30;19.40;99.90
3226;DHT22;1625;49.884;8.666;2022-08-21T00:42:56;19.30;99.90
3226;DHT22;1625;49.884;8.666;2022-08-21T00:45:22;19.30;99.90
3226;DHT22;1625;49.884;8.666;2022-08-21T00:47:49;19.30;99.90
3226;DHT22;1625;49.884;8.666;2022-08-21T00:50:15;19.30;99.90
3226;DHT22;1625;49.884;8.666;2022-08-21T00:52:41;19.20;99.90
3226;DHT22;1625;49.884;8.666;2022-08-21T00:55:09;19.20;99.90
3226;DHT22;1625;49.884;8.666;2022-08-21T00:57:40;19.20;99.90
3226;DHT22;1625;49.884;8.666;2022-08-21T01:00:09;19.10;99.90
3226;DHT22;1625;49.884;8.666;2022-08-21T01:02:35;19.10;99.90
3226;DHT22;1625;49.884;8.666;2022-08-21T01:05:00;19.10;99.90
3226;DHT22;1625;49.884;8.666;2022-08-21T01:07:26;19.10;99.90
3226;DHT22;1625;49.884;8.666;2022-08-21T01:09:52;19.00;99.90
3226;DHT22;1625;49.884;8.666;2022-08-21T01:12:17;19.00;99.90
3226;DHT22;1625;49.884;8.666;2022-08-21T01:14:44;19.00;99.90
3226;DHT22;1625;49.884;8.666;2022-08-21T01:17:12;19.00;99.90
3226;DHT22;1625;49.884;8.666;2022-08-21T01:19:39;19.00;99.90
3226;DHT22;1625;49.884;8.666;2022-08-21T01:22:05;19.00;99.90
3226;DHT22;1625;49.884;8.666;2022-08-21T01:24:31;18.90;99.90
3226;DHT22;1625;49.884;8.666;2022-08-21T01:27:03;18.80;99.90
3226;DHT22;1625;49.884;8.666;2022-08-21T01:29:41;18.80;99.90
3226;DHT22;1625;49.884;8.666;2022-08-21T01:32:13;18.80;99.90
3226;DHT22;1625;49.884;8.666;2022-08-21T01:34:43;18.80;99.90
3226;DHT22;1625;49.884;8.666;2022-08-21T01:37:09;18.70;99.90
3226;DHT22;1625;49.884;8.666;2022-08-21T01:39:35;18.70;99.90
3226;DHT22;1625;49.884;8.666;2022-08-21T01:42:02;18.60;99.90
3226;DHT22;1625;49.884;8.666;2022-08-21T01:44:28;18.50;99.90
3226;DHT22;1625;49.884;8.666;2022-08-21T01:46:54;18.60;99.90
3226;DHT22;1625;49.884;8.666;2022-08-21T01:49:20;18.60;99.90
3226;DHT22;1625;49.884;8.666;2022-08-21T01:51:46;18.60;99.90
3226;DHT22;1625;49.884;8.666;2022-08-21T01:54:12;18.50;99.90
3226;DHT22;1625;49.884;8.666;2022-08-21T01:56:41;18.50;99.90
3226;DHT22;1625;49.884;8.666;2022-08-21T01:59:08;18.50;99.90
3226;DHT22;1625;49.884;8.666;2022-08-21T02:01:34;18.50;99.90
3226;DHT22;1625;49.884;8.666;2022-08-21T02:04:00;18.50;99.90
3226;DHT22;1625;49.884;8.666;2022-08-21T02:06:26;18.50;99.90
3226;DHT22;1625;49.884;8.666;2022-08-21T02:08:52;18.40;99.90
3226;DHT22;1625;49.884;8.666;2022-08-21T02:11:18;18.40;99.90
3226;DHT22;1625;49.884;8.666;2022-08-21T02:13:44;18.40;99.90
3226;DHT22;1625;49.884;8.666;2022-08-21T02:16:10;18.30;99.90
3226;DHT22;1625;49.884;8.666;2022-08-21T02:18:36;18.30;99.90
3226;DHT22;1625;49.884;8.666;2022-08-21T02:21:04;18.30;99.90
3226;DHT22;1625;49.884;8.666;2022-08-21T02:23:30;18.20;99.90
3226;DHT22;1625;49.884;8.666;2022-08-21T02:26:01;18.20;99.90
3226;DHT22;1625;49.884;8.666;2022-08-21T02:28:27;18.20;99.90
3226;DHT22;1625;49.884;8.666;2022-08-21T02:30:53;18.20;99.90
3226;DHT22;1625;49.884;8.666;2022-08-21T02:33:19;18.10;99.90
3226;DHT22;1625;49.884;8.666;2022-08-21T02:35:46;18.10;99.90
3226;DHT22;1625;49.884;8.666;2022-08-21T02:38:19;18.10;99.90
3226;DHT22;1625;49.884;8.666;2022-08-21T02:40:47;18.10;99.90
3226;DHT22;1625;49.884;8.666;2022-08-21T02:43:14;18.10;99.90
3226;DHT22;1625;49.884;8.666;2022-08-21T02:45:40;18.10;99.90
3226;DHT22;1625;49.884;8.666;2022-08-21T02:48:09;18.00;99.90
3226;DHT22;1625;49.884;8.666;2022-08-21T02:50:45;18.00;99.90
3226;DHT22;1625;49.884;8.666;2022-08-21T02:53:12;18.00;99.90
3226;DHT22;1625;49.884;8.666;2022-08-21T02:55:46;18.00;99.90
3226;DHT22;1625;49.884;8.666;2022-08-21T02:58:15;18.00;99.90
3226;DHT22;1625;49.884;8.666;2022-08-21T03:00:41;18.10;99.90
3226;DHT22;1625;49.884;8.666;2022-08-21T03:03:07;18.10;99.90
3226;DHT22;1625;49.884;8.666;2022-08-21T03:05:34;17.90;99.90
3226;DHT22;1625;49.884;8.666;2022-08-21T03:08:03;17.80;99.90
3226;DHT22;1625;49.884;8.666;2022-08-21T03:10:29;17.80;99.90
3226;DHT22;1625;49.884;8.666;2022-08-21T03:12:56;17.80;99.90
3226;DHT22;1625;49.884;8.666;2022-08-21T03:15:23;17.70;99.90
3226;DHT22;1625;49.884;8.666;2022-08-21T03:17:51;17.70;99.90
3226;DHT22;1625;49.884;8.666;2022-08-21T03:20:22;17.80;99.90
3226;DHT22;1625;49.884;8.666;2022-08-21T03:22:48;17.70;99.90
3226;DHT22;1625;49.884;8.666;2022-08-21T03:25:13;17.70;99.90
3226;DHT22;1625;49.884;8.666;2022-08-21T11:25:35;24.60;99.90
3226;DHT22;1625;49.884;8.666;2022-08-21T11:28:09;24.60;99.90
3226;DHT22;1625;49.884;8.666;2022-08-21T11:39:22;24.70;99.90
3226;DHT22;1625;49.884;8.666;2022-08-21T11:49:46;25.10;99.90
3226;DHT22;1625;49.884;8.666;2022-08-21T11:52:31;25.10;99.90
3226;DHT22;1625;49.884;8.666;2022-08-21T11:55:23;25.20;99.90
3226;DHT22;1625;49.884;8.666;2022-08-21T11:58:00;25.20;99.90
3226;DHT22;1625;49.884;8.666;2022-08-21T12:00:56;25.20;99.90
3226;DHT22;1625;49.884;8.666;2022-08-21T12:03:28;25.30;99.90
3226;DHT22;1625;49.884;8.666;2022-08-21T12:06:08;25.50;99.90
3226;DHT22;1625;49.884;8.666;2022-08-21T12:08:43;25.60;99.90
3226;DHT22;1625;49.884;8.666;2022-08-21T12:13:54;25.70;99.90
3226;DHT22;1625;49.884;8.666;2022-08-21T12:16:41;25.60;99.90
3226;DHT22;1625;49.884;8.666;2022-08-21T12:19:14;25.50;99.70
3226;DHT22;1625;49.884;8.666;2022-08-21T12:22:13;25.50;99.90
3226;DHT22;1625;49.884;8.666;2022-08-21T12:24:45;25.60;99.90
3226;DHT22;1625;49.884;8.666;2022-08-21T12:27:29;25.70;98.90
3226;DHT22;1625;49.884;8.666;2022-08-21T12:30:01;25.80;99.40
3226;DHT22;1625;49.884;8.666;2022-08-21T12:35:40;25.90;98.30
3226;DHT22;1625;49.884;8.666;2022-08-21T12:43:30;26.10;96.80
3226;DHT22;1625;49.884;8.666;2022-08-21T12:45:56;26.00;96.70
3226;DHT22;1625;49.884;8.666;2022-08-21T12:48:29;26.00;96.50
3226;DHT22;1625;49.884;8.666;2022-08-21T12:51:18;26.20;96.40
3226;DHT22;1625;49.884;8.666;2022-08-21T12:53:53;26.30;95.70
3226;DHT22;1625;49.884;8.666;2022-08-21T12:56:21;26.40;95.60
3226;DHT22;1625;49.884;8.666;2022-08-21T12:58:51;26.40;95.70
3226;DHT22;1625;49.884;8.666;2022-08-21T13:03:46;26.40;95.00
3226;DHT22;1625;49.884;8.666;2022-08-21T13:06:17;26.40;95.10
3226;DHT22;1625;49.884;8.666;2022-08-21T13:08:45;26.40;95.00
3226;DHT22;1625;49.884;8.666;2022-08-21T13:11:15;26.40;94.90
3226;DHT22;1625;49.884;8.666;2022-08-21T13:13:42;26.40;95.40
3226;DHT22;1625;49.884;8.666;2022-08-21T13:16:09;26.40;94.30
3226;DHT22;1625;49.884;8.666;2022-08-21T13:21:17;26.10;93.90
3226;DHT22;1625;49.884;8.666;2022-08-21T13:23:42;26.10;93.80
3226;DHT22;1625;49.884;8.666;2022-08-21T13:26:17;26.00;94.20
3226;DHT22;1625;49.884;8.666;2022-08-21T13:28:43;26.00;94.20
3226;DHT22;1625;49.884;8.666;2022-08-21T13:31:15;25.90;94.50
3226;DHT22;1625;49.884;8.666;2022-08-21T13:33:41;25.90;94.40
3226;DHT22;1625;49.884;8.666;2022-08-21T13:36:09;26.10;94.00
3226;DHT22;1625;49.884;8.666;2022-08-21T13:38:37;26.30;93.90
3226;DHT22;1625;49.884;8.666;2022-08-21T13:41:21;26.60;93.70
3226;DHT22;1625;49.884;8.666;2022-08-21T13:46:39;26.90;92.70
3226;DHT22;1625;49.884;8.666;2022-08-21T13:49:06;27.10;92.70
3226;DHT22;1625;49.884;8.666;2022-08-21T13:51:34;27.20;92.90
3226;DHT22;1625;49.884;8.666;2022-08-21T13:54:00;27.30;91.90
3226;DHT22;1625;49.884;8.666;2022-08-21T13:56:45;27.30;91.10
3226;DHT22;1625;49.884;8.666;2022-08-21T13:59:11;27.30;91.20
3226;DHT22;1625;49.884;8.666;2022-08-21T14:04:55;27.20;90.60
3226;DHT22;1625;49.884;8.666;2022-08-21T14:07:31;27.30;90.60
3226;DHT22;1625;49.884;8.666;2022-08-21T14:10:20;27.40;90.20
3226;DHT22;1625;49.884;8.666;2022-08-21T14:12:53;27.50;90.40
3226;DHT22;1625;49.884;8.666;2022-08-21T14:15:26;27.60;90.00
3226;DHT22;1625;49.884;8.666;2022-08-21T14:17:54;27.70;90.40
3226;DHT22;1625;49.884;8.666;2022-08-21T14:20:39;27.60;90.00
3226;DHT22;1625;49.884;8.666;2022-08-21T14:23:05;27.50;88.70
3226;DHT22;1625;49.884;8.666;2022-08-21T14:25:39;27.50;90.00
3226;DHT22;1625;49.884;8.666;2022-08-21T14:30:36;27.40;87.40
3226;DHT22;1625;49.884;8.666;2022-08-21T14:33:04;27.50;89.40
3226;DHT22;1625;49.884;8.666;2022-08-21T14:35:34;27.50;88.90
3226;DHT22;1625;49.884;8.666;2022-08-21T14:38:00;27.80;87.50
3226;DHT22;1625;49.884;8.666;2022-08-21T14:40:25;28.00;86.80
3226;DHT22;1625;49.884;8.666;2022-08-21T14:42:52;28.20;86.40
3226;DHT22;1625;49.884;8.666;2022-08-21T14:45:27;28.60;84.40
3226;DHT22;1625;49.884;8.666;2022-08-21T14:47:54;28.60;84.70
3226;DHT22;1625;49.884;8.666;2022-08-21T14:50:20;29.00;82.30
3226;DHT22;1625;49.884;8.666;2022-08-21T14:52:45;32.20;79.50
3226;DHT22;1625;49.884;8.666;2022-08-21T14:55:12;34.20;73.00
3226;DHT22;1625;49.884;8.666;2022-08-21T14:57:42;36.00;69.90
3226;DHT22;1625;49.884;8.666;2022-08-21T15:00:13;35.30;68.00
3226;DHT22;1625;49.884;8.666;2022-08-21T15:02:38;36.20;65.20
3226;DHT22;1625;49.884;8.666;2022-08-21T15:05:04;34.50;63.50
3226;DHT22;1625;49.884;8.666;2022-08-21T15:07:30;33.60;63.10
3226;DHT22;1625;49.884;8.666;2022-08-21T15:09:56;32.90;65.10
3226;DHT22;1625;49.884;8.666;2022-08-21T15:12:22;32.20;66.30
3226;DHT22;1625;49.884;8.666;2022-08-21T15:14:48;31.80;67.50
3226;DHT22;1625;49.884;8.666;2022-08-21T15:17:13;34.20;65.60
3226;DHT22;1625;49.884;8.666;2022-08-21T15:19:39;38.60;60.60
3226;DHT22;1625;49.884;8.666;2022-08-21T15:22:05;38.40;55.50
3226;DHT22;1625;49.884;8.666;2022-08-21T15:24:31;36.10;55.70
3226;DHT22;1625;49.884;8.666;2022-08-21T15:26:59;34.50;57.00
3226;DHT22;1625;49.884;8.666;2022-08-21T15:29:26;33.90;58.40
3226;DHT22;1625;49.884;8.666;2022-08-21T15:31:54;35.70;57.70
3226;DHT22;1625;49.884;8.666;2022-08-21T15:34:20;36.20;55.80
3226;DHT22;1625;49.884;8.666;2022-08-21T15:36:48;35.30;55.80
3226;DHT22;1625;49.884;8.666;2022-08-21T15:39:13;34.00;56.60
3226;DHT22;1625;49.884;8.666;2022-08-21T15:41:39;33.60;57.60
3226;DHT22;1625;49.884;8.666;2022-08-21T15:44:05;33.60;57.90
3226;DHT22;1625;49.884;8.666;2022-08-21T15:46:31;33.30;58.20
3226;DHT22;1625;49.884;8.666;2022-08-21T15:48:57;32.50;58.40
3226;DHT22;1625;49.884;8.666;2022-08-21T15:51:22;31.70;59.90
3226;DHT22;1625;49.884;8.666;2022-08-21T15:53:48;31.30;61.10
3226;DHT22;1625;49.884;8.666;2022-08-21T15:56:28;31.50;60.70
3226;DHT22;1625;49.884;8.666;2022-08-21T15:59:00;31.20;60.80
3226;DHT22;1625;49.884;8.666;2022-08-21T16:01:27;30.80;61.60
3226;DHT22;1625;49.884;8.666;2022-08-21T16:03:54;30.60;63.00
3226;DHT22;1625;49.884;8.666;2022-08-21T16:06:20;30.80;62.30
3226;DHT22;1625;49.884;8.666;2022-08-21T16:08:46;31.30;60.70
3226;DHT22;1625;49.884;8.666;2022-08-21T16:11:13;30.90;61.10
3226;DHT22;1625;49.884;8.666;2022-08-21T16:13:41;30.50;62.40
3226;DHT22;1625;49.884;8.666;2022-08-21T16:16:09;30.20;62.90
3226;DHT22;1625;49.884;8.666;2022-08-21T16:18:36;29.90;63.90
3226;DHT22;1625;49.884;8.666;2022-08-21T16:21:02;29.80;64.00
3226;DHT22;1625;49.884;8.666;2022-08-21T16:23:30;29.60;63.60
3226;DHT22;1625;49.884;8.666;2022-08-21T16:25:59;29.40;64.40
3226;DHT22;1625;49.884;8.666;2022-08-21T16:28:25;29.20;63.80
3226;DHT22;1625;49.884;8.666;2022-08-21T16:30:51;29.00;64.30
3226;DHT22;1625;49.884;8.666;2022-08-21T16:33:29;29.00;65.70
3226;DHT22;1625;49.884;8.666;2022-08-21T16:35:55;28.90;64.50
3226;DHT22;1625;49.884;8.666;2022-08-21T16:38:21;28.80;64.50
3226;DHT22;1625;49.884;8.666;2022-08-21T16:40:46;28.60;65.00
3226;DHT22;1625;49.884;8.666;2022-08-21T16:43:12;28.60;65.90
3226;DHT22;1625;49.884;8.666;2022-08-21T16:45:38;28.50;65.20
3226;DHT22;1625;49.884;8.666;2022-08-21T16:48:05;28.40;65.60
3226;DHT22;1625;49.884;8.666;2022-08-21T16:50:35;28.30;65.90
3226;DHT22;1625;49.884;8.666;2022-08-21T16:53:01;28.20;66.30
3226;DHT22;1625;49.884;8.666;2022-08-21T16:55:27;28.20;66.90
3226;DHT22;1625;49.884;8.666;2022-08-21T16:57:54;28.20;67.20
3226;DHT22;1625;49.884;8.666;2022-08-21T17:00:20;28.20;66.60
3226;DHT22;1625;49.884;8.666;2022-08-21T17:02:48;28.10;66.60
3226;DHT22;1625;49.884;8.666;2022-08-21T17:05:15;27.90;66.40
3226;DHT22;1625;49.884;8.666;2022-08-21T17:07:42;27.90;67.20
3226;DHT22;1625;49.884;8.666;2022-08-21T17:10:10;27.80;66.90
3226;DHT22;1625;49.884;8.666;2022-08-21T17:12:37;27.60;67.50
3226;DHT22;1625;49.884;8.666;2022-08-21T17:15:18;27.40;67.70
3226;DHT22;1625;49.884;8.666;2022-08-21T17:17:45;27.30;68.90
3226;DHT22;1625;49.884;8.666;2022-08-21T17:20:11;27.30;69.50
3226;DHT22;1625;49.884;8.666;2022-08-21T17:22:36;27.40;68.70
3226;DHT22;1625;49.884;8.666;2022-08-21T17:25:02;27.40;68.80
3226;DHT22;1625;49.884;8.666;2022-08-21T17:27:28;27.40;69.60
3226;DHT22;1625;49.884;8.666;2022-08-21T17:29:55;27.30;69.00
3226;DHT22;1625;49.884;8.666;2022-08-21T17:32:21;27.30;68.00
3226;DHT22;1625;49.884;8.666;2022-08-21T17:34:46;27.20;68.20
3226;DHT22;1625;49.884;8.666;2022-08-21T17:37:13;27.10;70.00
3226;DHT22;1625;49.884;8.666;2022-08-21T17:39:38;27.10;70.40
3226;DHT22;1625;49.884;8.666;2022-08-21T17:42:08;26.90;70.30
3226;DHT22;1625;49.884;8.666;2022-08-21T17:44:38;26.80;70.40
3226;DHT22;1625;49.884;8.666;2022-08-21T17:47:04;26.70;71.80
3226;DHT22;1625;49.884;8.666;2022-08-21T17:49:30;26.60;72.10
3226;DHT22;1625;49.884;8.666;2022-08-21T17:51:56;26.50;73.00
3226;DHT22;1625;49.884;8.666;2022-08-21T17:54:22;26.40;74.10
3226;DHT22;1625;49.884;8.666;2022-08-21T17:56:49;26.40;73.60
3226;DHT22;1625;49.884;8.666;2022-08-21T17:59:15;26.20;73.80
3226;DHT22;1625;49.884;8.666;2022-08-21T18:01:43;26.10;74.60
3226;DHT22;1625;49.884;8.666;2022-08-21T18:04:10;26.10;75.40
3226;DHT22;1625;49.884;8.666;2022-08-21T18:06:36;26.00;76.00
3226;DHT22;1625;49.884;8.666;2022-08-21T18:09:03;25.90;75.90
3226;DHT22;1625;49.884;8.666;2022-08-21T18:11:29;25.90;76.00
3226;DHT22;1625;49.884;8.666;2022-08-21T18:13:57;25.80;76.40
3226;DHT22;1625;49.884;8.666;2022-08-21T18:16:26;25.70;77.00
3226;DHT22;1625;49.884;8.666;2022-08-21T18:18:52;25.70;77.60
3226;DHT22;1625;49.884;8.666;2022-08-21T18:21:18;25.60;78.10
3226;DHT22;1625;49.884;8.666;2022-08-21T18:23:44;25.50;79.80
3226;DHT22;1625;49.884;8.666;2022-08-21T18:26:12;25.40;80.10
3226;DHT22;1625;49.884;8.666;2022-08-21T18:28:39;25.30;81.40
3226;DHT22;1625;49.884;8.666;2022-08-21T18:31:07;25.20;82.30
3226;DHT22;1625;49.884;8.666;2022-08-21T18:33:34;25.20;82.80
3226;DHT22;1625;49.884;8.666;2022-08-21T18:35:59;25.10;83.70
3226;DHT22;1625;49.884;8.666;2022-08-21T18:38:25;25.00;83.60
3226;DHT22;1625;49.884;8.666;2022-08-21T18:40:52;24.90;83.80
3226;DHT22;1625;49.884;8.666;2022-08-21T21:50:18;21.30;99.90
